Time;durP1;ratioP1;P1;durP2;ratioP2;P2;SDS_P1;SDS_P2;PMS_P1;PMS_P2;Temp;Humidity;BMP_temperature;BMP_pressure;BME280_temperature;BME280_humidity;BME280_pressure;Samples;Min_cycle;Max_cycle;Signal;HPM_P1;HPM_P2
2022/10/19 00:02:01;;;;;;;5.43;2.20;;;;;;;10.56;94.68;101389.34;5057655;28;20074;-93
2022/10/19 00:04:28;;;;;;;6.10;1.50;;;;;;;10.49;95.02;101386.22;5057017;28;20267;-91
2022/10/19 00:06:54;;;;;;;10.07;2.33;;;;;;;10.49;94.98;101383.50;5057526;28;20025;-91
2022/10/19 00:09:19;;;;;;;5.70;2.03;;;;;;;10.34;95.37;101384.59;5057574;28;20087;-92
2022/10/19 00:11:47;;;;;;;4.60;1.80;;;;;;;10.29;96.32;101376.56;5072060;28;20022;-91
2022/10/19 00:14:16;;;;;;;6.50;2.17;;;;;;;10.30;96.07;101380.88;5073306;28;20021;-89
2022/10/19 00:16:43;;;;;;;7.10;1.90;;;;;;;10.31;95.80;101392.56;5077118;28;20028;-90
2022/10/19 00:19:13;;;;;;;5.20;1.95;;;;;;;10.26;95.59;101389.97;5079187;28;20025;-90
2022/10/19 00:21:38;;;;;;;11.23;2.25;;;;;;;10.32;95.92;101389.56;5078357;28;20025;-90
2022/10/19 00:24:05;;;;;;;6.18;2.53;;;;;;;10.22;96.54;101389.72;5080475;28;20097;-91
2022/10/19 00:26:32;;;;;;;5.45;1.98;;;;;;;10.30;96.04;101382.78;5080820;28;20089;-91
2022/10/19 00:28:57;;;;;;;4.53;1.90;;;;;;;10.24;95.68;101385.63;5078873;28;20032;-90
2022/10/19 00:31:23;;;;;;;5.60;2.40;;;;;;;10.13;96.27;101380.63;5066696;28;20025;-92
2022/10/19 00:33:49;;;;;;;6.13;1.90;;;;;;;10.04;97.26;101379.69;5064571;28;20033;-91
2022/10/19 00:36:24;;;;;;;6.45;2.25;;;;;;;10.04;97.58;101382.41;5063470;28;20043;-90
2022/10/19 00:38:50;;;;;;;5.13;2.75;;;;;;;10.03;97.67;101381.63;5071603;28;20024;-92
2022/10/19 00:41:17;;;;;;;10.15;2.33;;;;;;;10.01;97.80;101383.03;5066514;28;20025;-92
2022/10/19 00:43:55;;;;;;;5.07;2.20;;;;;;;9.97;97.26;101376.59;5059489;28;20219;-90
2022/10/19 00:46:22;;;;;;;6.00;2.13;;;;;;;10.06;97.75;101388.38;5059249;28;20020;-91
2022/10/19 00:48:49;;;;;;;5.90;2.25;;;;;;;10.05;97.77;101384.03;5057573;28;20112;-92
2022/10/19 00:51:14;;;;;;;9.32;2.53;;;;;;;9.92;97.72;101386.47;5058287;28;20032;-90
2022/10/19 00:53:40;;;;;;;9.20;2.30;;;;;;;9.83;97.38;101382.00;5056427;28;20024;-91
2022/10/19 00:56:10;;;;;;;4.97;2.15;;;;;;;9.79;97.87;101381.78;5058658;28;20033;-90
2022/10/19 00:58:36;;;;;;;6.45;2.40;;;;;;;9.72;97.87;101383.25;5058092;28;20029;-90
2022/10/19 01:01:04;;;;;;;7.45;1.92;;;;;;;9.66;97.63;101385.25;5039419;28;20089;-78
2022/10/19 01:03:31;;;;;;;7.70;2.10;;;;;;;9.56;97.98;101383.50;5055091;28;20032;-78
2022/10/19 01:05:56;;;;;;;5.05;2.35;;;;;;;9.47;98.85;101387.22;5036272;28;20024;-78
2022/10/19 01:08:22;;;;;;;5.07;2.20;;;;;;;9.45;98.72;101392.94;5054542;28;20489;-78
2022/10/19 01:11:05;;;;;;;5.07;2.28;;;;;;;9.44;99.17;101385.91;5054452;28;20548;-78
2022/10/19 01:13:41;;;;;;;6.00;2.20;;;;;;;9.39;99.33;101380.53;5054614;28;20489;-78
2022/10/19 01:16:31;;;;;;;;;;;;;;;9.37;99.68;101381.94;5055044;28;20032;-79
2022/10/19 01:19:12;;;;;;;6.10;2.38;;;;;;;9.44;99.62;101380.47;5041101;28;19958;-78
2022/10/19 01:21:44;;;;;;;7.05;2.50;;;;;;;9.40;99.29;101373.97;5054285;28;20029;-79
2022/10/19 01:24:33;;;;;;;5.68;1.88;;;;;;;9.38;99.56;101369.94;5054271;28;20092;-79
2022/10/19 01:27:30;;;;;;;6.72;2.30;;;;;;;9.30;99.57;101371.44;5054653;28;20123;-79
2022/10/19 01:30:12;;;;;;;7.35;2.25;;;;;;;9.16;99.96;101365.13;5036395;28;20075;-79
2022/10/19 01:32:38;;;;;;;5.72;2.63;;;;;;;9.07;100.00;101370.44;5036470;28;20444;-79
2022/10/19 01:35:14;;;;;;;8.37;3.33;;;;;;;8.98;100.00;101366.75;5036411;28;20139;-79
2022/10/19 01:37:49;;;;;;;6.90;2.20;;;;;;;8.90;100.00;101361.97;5054216;28;20021;-79
2022/10/19 01:40:34;;;;;;;9.02;2.60;;;;;;;8.90;100.00;101364.66;5053966;28;20112;-79
2022/10/19 01:43:13;;;;;;;6.20;2.50;;;;;;;8.85;100.00;101362.03;5053952;28;20049;-79
2022/10/19 01:45:51;;;;;;;5.50;2.30;;;;;;;8.75;100.00;101365.72;5037006;28;20037;-79
2022/10/19 01:48:24;;;;;;;7.05;2.50;;;;;;;8.77;100.00;101360.78;5036100;28;20116;-80
2022/10/19 01:50:57;;;;;;;6.93;2.63;;;;;;;8.72;100.00;101353.50;5036603;28;20040;-78
2022/10/19 01:53:25;;;;;;;5.50;2.38;;;;;;;8.63;100.00;101355.25;5053722;28;20025;-79
2022/10/19 01:55:53;;;;;;;4.22;1.95;;;;;;;8.56;100.00;101360.22;5053786;28;20021;-78
2022/10/19 01:58:26;;;;;;;7.35;2.42;;;;;;;8.43;100.00;101358.25;5035794;28;20543;-80
2022/10/19 02:00:54;;;;;;;5.38;2.28;;;;;;;8.34;100.00;101362.69;5053662;28;20076;-79
2022/10/19 02:03:22;;;;;;;6.00;2.63;;;;;;;8.24;100.00;101362.78;5053443;28;20167;-80
2022/10/19 02:05:49;;;;;;;6.85;2.58;;;;;;;8.40;100.00;101359.63;5053675;28;20071;-80
2022/10/19 02:08:33;;;;;;;8.85;2.63;;;;;;;8.19;100.00;101355.47;5036090;28;20036;-80
2022/10/19 02:11:00;;;;;;;7.40;2.60;;;;;;;8.24;100.00;101351.94;5033112;28;20062;-80
2022/10/19 02:13:28;;;;;;;4.80;1.77;;;;;;;8.31;100.00;101346.94;5035653;28;20021;-80
2022/10/19 02:15:57;;;;;;;6.43;2.40;;;;;;;8.18;100.00;101353.88;5053243;28;20025;-80
2022/10/19 02:18:35;;;;;;;6.03;2.20;;;;;;;8.39;100.00;101349.84;5035166;28;20029;-80
2022/10/19 02:21:03;;;;;;;8.20;2.50;;;;;;;8.41;100.00;101344.16;5053224;28;20029;-80
2022/10/19 02:23:28;;;;;;;4.38;2.30;;;;;;;8.42;100.00;101345.78;5053563;28;20021;-79
2022/10/19 02:25:55;;;;;;;6.90;2.25;;;;;;;8.38;100.00;101342.00;5034976;28;20362;-80
2022/10/19 02:28:23;;;;;;;9.23;2.95;;;;;;;8.21;100.00;101337.00;5052845;28;20029;-79
2022/10/19 02:30:48;;;;;;;7.60;2.55;;;;;;;8.16;100.00;101339.78;5052639;28;20031;-79
2022/10/19 02:33:14;;;;;;;8.55;3.15;;;;;;;8.23;100.00;101334.84;5053095;28;20021;-80
2022/10/19 02:35:40;;;;;;;10.15;2.75;;;;;;;8.31;100.00;101336.09;5034765;28;20043;-79
2022/10/19 02:38:07;;;;;;;9.10;2.78;;;;;;;8.34;100.00;101322.78;5035165;28;20094;-80
2022/10/19 02:40:37;;;;;;;5.93;2.50;;;;;;;8.30;100.00;101329.84;5052913;28;20112;-79
2022/10/19 02:43:11;;;;;;;7.07;2.80;;;;;;;8.35;100.00;101337.16;5034540;28;20048;-80
2022/10/19 02:45:45;;;;;;;11.07;3.03;;;;;;;8.31;100.00;101336.91;5052769;28;20050;-80
2022/10/19 02:48:17;;;;;;;10.55;3.08;;;;;;;8.34;100.00;101338.25;5052740;28;20028;-80
2022/10/19 02:50:44;;;;;;;8.15;2.78;;;;;;;8.33;100.00;101334.69;5035007;28;20032;-80
2022/10/19 02:53:09;;;;;;;6.63;3.03;;;;;;;8.33;100.00;101334.69;5052750;28;20048;-80
2022/10/19 02:55:36;;;;;;;5.03;2.13;;;;;;;8.32;100.00;101332.28;5034615;28;20059;-80
2022/10/19 02:58:01;;;;;;;9.77;2.85;;;;;;;8.33;100.00;101333.91;5034470;28;20025;-80
2022/10/19 03:00:26;;;;;;;8.27;2.80;;;;;;;8.09;100.00;101328.50;5052469;28;20131;-79
2022/10/19 03:02:52;;;;;;;9.57;2.88;;;;;;;7.95;100.00;101328.34;5034934;28;20053;-79
2022/10/19 03:05:17;;;;;;;10.13;3.45;;;;;;;7.90;100.00;101324.91;5052497;28;20032;-79
2022/10/19 03:07:43;;;;;;;8.27;2.10;;;;;;;7.85;100.00;101323.03;5052397;28;20063;-79
2022/10/19 03:10:09;;;;;;;7.27;2.83;;;;;;;7.87;100.00;101317.31;5052306;28;20259;-79
2022/10/19 03:12:35;;;;;;;9.35;2.85;;;;;;;7.93;100.00;101322.41;5052381;28;20037;-79
2022/10/19 03:15:00;;;;;;;5.72;2.95;;;;;;;7.93;100.00;101319.72;5052068;28;20399;-79
2022/10/19 03:17:27;;;;;;;7.15;2.63;;;;;;;8.01;100.00;101321.78;5034316;28;20421;-79
2022/10/19 03:19:54;;;;;;;6.88;2.53;;;;;;;7.99;100.00;101329.41;5052263;28;20032;-79
2022/10/19 03:22:19;;;;;;;6.07;2.75;;;;;;;7.96;100.00;101316.41;5052091;28;20028;-79
2022/10/19 03:24:44;;;;;;;7.10;2.90;;;;;;;8.00;100.00;101320.16;5034231;28;20385;-79
2022/10/19 03:27:10;;;;;;;8.73;3.20;;;;;;;7.97;100.00;101314.50;5052177;28;20056;-79
2022/10/19 03:29:35;;;;;;;9.35;2.83;;;;;;;8.18;100.00;101310.47;5052127;28;20039;-79
2022/10/19 03:32:00;;;;;;;13.60;3.50;;;;;;;8.18;100.00;101312.38;5034087;28;20443;-79
2022/10/19 03:34:27;;;;;;;7.87;2.50;;;;;;;8.23;100.00;101315.84;5034033;28;20271;-79
2022/10/19 03:36:52;;;;;;;9.15;3.33;;;;;;;8.21;100.00;101306.34;5034217;28;20275;-79
2022/10/19 03:39:17;;;;;;;10.87;3.87;;;;;;;8.11;100.00;101307.31;5052156;28;20036;-79
2022/10/19 03:41:43;;;;;;;6.53;2.70;;;;;;;8.08;100.00;101313.31;5052145;28;20698;-80
2022/10/19 03:44:09;;;;;;;8.05;2.95;;;;;;;8.03;100.00;101313.34;5052116;28;20498;-79
2022/10/19 03:46:36;;;;;;;9.38;2.85;;;;;;;7.91;100.00;101315.66;5052105;28;20386;-79
2022/10/19 03:49:01;;;;;;;;;;;;;;;7.89;100.00;101324.06;5054851;28;20029;-78
2022/10/19 03:51:29;;;;;;;7.95;3.10;;;;;;;7.88;100.00;101321.66;5056463;28;20048;-78
2022/10/19 03:54:00;;;;;;;11.07;2.65;;;;;;;7.80;100.00;101320.38;5055896;28;20106;-78
2022/10/19 03:56:27;;;;;;;13.07;3.45;;;;;;;7.63;100.00;101325.44;5056165;28;20017;-77
2022/10/19 03:58:55;;;;;;;6.18;2.58;;;;;;;7.44;100.00;101328.84;5055565;28;20410;-77
2022/10/19 04:01:23;;;;;;;8.57;2.60;;;;;;;7.19;100.00;101329.03;5038019;28;20405;-78
2022/10/19 04:03:59;;;;;;;6.80;2.75;;;;;;;7.23;100.00;101327.41;5056147;28;20063;-77
2022/10/19 04:06:31;;;;;;;9.68;2.70;;;;;;;7.29;100.00;101323.53;5032009;28;20474;-77
2022/10/19 04:08:56;;;;;;;8.35;3.03;;;;;;;7.28;100.00;101324.66;5055797;28;20044;-77
2022/10/19 04:11:29;;;;;;;8.45;2.97;;;;;;;7.32;100.00;101325.69;5056130;28;20037;-78
2022/10/19 04:13:57;;;;;;;5.68;2.55;;;;;;;7.35;100.00;101335.94;5055995;28;20029;-78
2022/10/19 04:16:23;;;;;;;10.73;3.33;;;;;;;7.34;100.00;101320.78;5037564;28;20359;-78
2022/10/19 04:18:49;;;;;;;9.07;3.40;;;;;;;7.26;100.00;101332.25;5055923;28;20033;-78
2022/10/19 04:21:36;;;;;;;7.13;2.75;;;;;;;7.08;100.00;101338.34;5055763;28;20063;-79
2022/10/19 04:24:13;;;;;;;7.82;2.88;;;;;;;7.03;100.00;101332.94;5051084;28;20036;-78
2022/10/19 04:26:42;;;;;;;7.25;3.28;;;;;;;7.15;100.00;101325.28;5035592;28;20036;-78
2022/10/19 04:29:08;;;;;;;7.20;3.03;;;;;;;7.17;100.00;101328.50;5055545;28;20470;-78
2022/10/19 04:31:33;;;;;;;9.30;3.88;;;;;;;7.17;100.00;101318.47;5055386;28;20111;-78
2022/10/19 04:33:59;;;;;;;5.15;3.03;;;;;;;7.06;100.00;101321.56;5037300;28;20037;-79
2022/10/19 04:36:24;;;;;;;7.82;3.60;;;;;;;6.89;100.00;101316.53;5037352;28;20025;-78
2022/10/19 04:38:50;;;;;;;8.48;3.03;;;;;;;6.90;100.00;101316.25;5055115;28;20401;-78
2022/10/19 04:41:17;;;;;;;;;;;;;;;6.87;100.00;101315.97;5037713;28;20075;-79
2022/10/19 04:43:44;;;;;;;5.78;2.42;;;;;;;6.80;100.00;101310.88;5054788;28;19919;-78
2022/10/19 04:46:20;;;;;;;6.53;3.25;;;;;;;6.76;100.00;101311.75;5055285;28;20441;-78
2022/10/19 04:48:48;;;;;;;8.05;3.20;;;;;;;6.81;100.00;101303.56;5037187;28;20094;-78
2022/10/19 04:51:15;;;;;;;9.27;3.67;;;;;;;6.79;100.00;101306.56;5037105;28;20103;-78
2022/10/19 04:53:42;;;;;;;9.48;3.80;;;;;;;6.71;100.00;101304.44;5054818;28;20425;-79
2022/10/19 04:56:11;;;;;;;14.98;4.13;;;;;;;6.65;100.00;101310.97;5054693;28;20025;-78
2022/10/19 04:58:36;;;;;;;11.50;3.72;;;;;;;6.53;100.00;101307.78;5054613;28;20052;-78
2022/10/19 05:01:09;;;;;;;10.80;3.57;;;;;;;6.46;100.00;101304.59;5054502;28;20385;-78
2022/10/19 05:03:35;;;;;;;9.75;3.38;;;;;;;6.25;100.00;101304.69;5036466;28;20272;-78
2022/10/19 05:06:00;;;;;;;17.60;5.15;;;;;;;6.23;100.00;101306.84;5036292;28;20047;-78
2022/10/19 05:08:26;;;;;;;10.52;4.57;;;;;;;6.25;100.00;101307.38;5036584;28;20059;-79
2022/10/19 05:10:51;;;;;;;11.37;4.73;;;;;;;6.24;100.00;101303.06;5054546;28;20504;-79
2022/10/19 05:13:16;;;;;;;17.27;5.20;;;;;;;6.19;100.00;101303.06;5054098;28;20032;-80
2022/10/19 05:15:42;;;;;;;7.87;3.67;;;;;;;6.05;100.00;101310.16;5054853;28;20032;-79
2022/10/19 05:18:07;;;;;;;9.18;4.20;;;;;;;6.07;100.00;101305.28;5036362;28;20033;-79
2022/10/19 05:20:34;;;;;;;8.75;3.83;;;;;;;6.06;100.00;101294.75;5036293;28;20021;-78
2022/10/19 05:23:01;;;;;;;9.48;4.53;;;;;;;6.20;100.00;101296.56;5054165;28;20059;-78
2022/10/19 05:25:26;;;;;;;10.95;4.85;;;;;;;6.14;100.00;101291.47;5036112;28;20064;-79
2022/10/19 05:27:52;;;;;;;11.10;4.40;;;;;;;6.11;100.00;101290.13;5035715;28;20451;-78
2022/10/19 05:30:20;;;;;;;11.48;4.90;;;;;;;5.94;100.00;101293.16;5052774;28;20041;-78
2022/10/19 05:32:46;;;;;;;13.00;5.03;;;;;;;5.90;100.00;101294.78;5054309;28;20048;-79
2022/10/19 05:35:11;;;;;;;12.50;5.20;;;;;;;5.85;100.00;101292.06;5036019;28;20477;-78
2022/10/19 05:37:37;;;;;;;12.85;5.00;;;;;;;5.77;100.00;101297.22;5053741;28;20432;-78
2022/10/19 05:40:02;;;;;;;10.07;4.57;;;;;;;5.68;100.00;101284.25;5035314;28;20025;-78
2022/10/19 05:42:28;;;;;;;12.45;4.50;;;;;;;5.64;100.00;101296.69;5053205;28;20036;-78
2022/10/19 05:44:53;;;;;;;9.23;5.20;;;;;;;5.59;100.00;101294.00;5054207;28;20028;-78
2022/10/19 05:47:19;;;;;;;11.80;5.37;;;;;;;5.49;100.00;101295.91;5053975;28;20492;-78
2022/10/19 05:49:48;;;;;;;11.13;4.60;;;;;;;5.46;100.00;101283.75;5053712;28;20021;-78
2022/10/19 05:52:16;;;;;;;15.32;4.80;;;;;;;5.51;100.00;101291.03;5035478;28;20116;-78
2022/10/19 05:54:42;;;;;;;14.65;4.68;;;;;;;5.49;100.00;101294.03;5035921;28;20029;-78
2022/10/19 05:57:07;;;;;;;15.13;6.18;;;;;;;5.50;100.00;101295.63;5053260;28;20041;-78
2022/10/19 05:59:33;;;;;;;12.90;4.95;;;;;;;5.47;100.00;101300.78;5053360;28;20067;-78
2022/10/19 06:01:58;;;;;;;13.32;5.80;;;;;;;5.43;100.00;101300.53;5053457;28;20498;-77
2022/10/19 06:04:24;;;;;;;10.93;5.23;;;;;;;5.49;100.00;101298.63;5053169;28;20028;-78
2022/10/19 06:06:49;;;;;;;10.95;4.82;;;;;;;5.47;100.00;101301.59;5035358;28;20056;-78
2022/10/19 06:09:15;;;;;;;10.10;4.80;;;;;;;5.52;100.00;101298.88;5053077;28;20037;-78
2022/10/19 06:11:43;;;;;;;14.32;5.00;;;;;;;5.49;100.00;101304.81;5052931;28;20440;-78
2022/10/19 06:14:15;;;;;;;13.05;4.65;;;;;;;5.57;100.00;101304.28;5053137;28;20029;-78
2022/10/19 06:16:40;;;;;;;9.73;4.55;;;;;;;5.55;100.00;101303.75;5035422;28;20041;-77
2022/10/19 06:19:06;;;;;;;11.98;5.15;;;;;;;5.51;100.00;101299.94;5054233;28;20021;-77
2022/10/19 06:21:32;;;;;;;9.45;4.28;;;;;;;5.56;100.00;101294.56;5035676;28;20402;-78
2022/10/19 06:24:01;;;;;;;11.55;4.95;;;;;;;5.56;100.00;101291.06;5034904;28;20151;-78
2022/10/19 06:26:28;;;;;;;10.73;4.60;;;;;;;5.59;100.00;101291.31;5052803;28;20013;-78
2022/10/19 06:28:59;;;;;;;13.05;4.93;;;;;;;5.44;100.00;101289.44;5034716;28;20478;-78
2022/10/19 06:31:26;;;;;;;9.75;4.40;;;;;;;5.50;100.00;101292.13;5034713;28;20029;-78
2022/10/19 06:33:51;;;;;;;8.65;4.10;;;;;;;5.61;100.00;101291.84;5052497;28;20021;-78
2022/10/19 06:36:22;;;;;;;13.70;4.53;;;;;;;5.70;100.00;101292.91;5052744;28;20378;-78
2022/10/19 06:38:47;;;;;;;10.50;5.00;;;;;;;5.87;100.00;101291.78;5035088;28;20503;-78
2022/10/19 06:41:13;;;;;;;15.20;5.10;;;;;;;5.97;100.00;101292.59;5052682;28;20098;-78
2022/10/19 06:43:39;;;;;;;10.27;4.40;;;;;;;6.01;100.00;101290.16;5052829;28;20037;-79
2022/10/19 06:46:07;;;;;;;11.40;5.10;;;;;;;6.15;100.00;101296.59;5053126;28;20051;-79
2022/10/19 06:48:34;;;;;;;10.82;4.35;;;;;;;6.18;100.00;101297.94;5052275;28;20489;-79
2022/10/19 06:51:02;;;;;;;12.70;4.85;;;;;;;6.37;100.00;101298.13;5052691;28;20568;-78
2022/10/19 06:53:27;;;;;;;13.30;5.18;;;;;;;6.44;100.00;101298.66;5052216;28;20111;-79
2022/10/19 06:55:57;;;;;;;14.25;5.28;;;;;;;6.47;100.00;101303.50;5034357;28;20111;-79
2022/10/19 06:58:24;;;;;;;10.73;4.85;;;;;;;6.49;100.00;101302.13;5052343;28;20036;-79
2022/10/19 07:00:59;;;;;;;11.27;4.78;;;;;;;6.56;100.00;101305.34;5052557;28;20099;-78
2022/10/19 07:03:27;;;;;;;10.55;4.72;;;;;;;6.57;100.00;101303.47;5034529;28;20062;-78
2022/10/19 07:05:55;;;;;;;9.80;4.03;;;;;;;6.73;100.00;101310.41;5034415;28;20039;-79
2022/10/19 07:08:20;;;;;;;18.33;4.90;;;;;;;6.85;100.00;101300.03;5052278;28;20032;-78
2022/10/19 07:10:51;;;;;;;9.77;4.28;;;;;;;6.85;100.00;101305.44;5034377;28;20025;-79
2022/10/19 07:13:18;;;;;;;11.93;5.05;;;;;;;6.88;100.00;101290.53;5052483;28;20033;-78
2022/10/19 07:15:43;;;;;;;13.30;4.90;;;;;;;6.89;100.00;101292.16;5053635;28;20044;-78
2022/10/19 07:18:09;;;;;;;10.02;4.15;;;;;;;6.91;100.00;101292.69;5060672;28;20043;-78
2022/10/19 07:20:34;;;;;;;8.43;3.97;;;;;;;6.87;100.00;101297.84;5061981;28;20029;-79
2022/10/19 07:22:59;;;;;;;13.00;4.40;;;;;;;6.86;100.00;101301.63;5057722;28;20494;-79
2022/10/19 07:25:25;;;;;;;17.10;6.30;;;;;;;6.85;100.00;101289.19;5051985;28;20542;-78
2022/10/19 07:27:51;;;;;;;11.88;5.03;;;;;;;6.82;100.00;101300.59;5051044;28;20752;-78
2022/10/19 07:30:16;;;;;;;9.80;4.40;;;;;;;6.86;100.00;101301.63;5051671;28;20098;-78
2022/10/19 07:32:41;;;;;;;12.23;5.30;;;;;;;7.00;100.00;101301.00;5051861;28;20029;-78
2022/10/19 07:35:07;;;;;;;12.60;5.00;;;;;;;7.08;100.00;101298.53;5051396;28;20349;-78
2022/10/19 07:37:32;;;;;;;10.93;4.93;;;;;;;7.22;100.00;101304.09;5051607;28;20287;-78
2022/10/19 07:39:57;;;;;;;10.40;4.50;;;;;;;7.28;100.00;101297.53;5051903;28;20082;-78
2022/10/19 07:42:23;;;;;;;12.93;4.87;;;;;;;7.42;100.00;101298.50;5051493;28;20337;-78
2022/10/19 07:44:48;;;;;;;9.80;4.32;;;;;;;7.52;100.00;101303.81;5051949;28;20025;-78
2022/10/19 07:47:14;;;;;;;10.43;5.35;;;;;;;7.68;100.00;101300.97;5033276;28;20101;-78
2022/10/19 07:49:39;;;;;;;10.15;4.80;;;;;;;7.72;100.00;101302.00;5051735;28;20052;-79
2022/10/19 07:52:04;;;;;;;13.70;4.93;;;;;;;7.60;100.00;101307.03;5033631;28;20123;-78
2022/10/19 07:54:30;;;;;;;16.50;6.35;;;;;;;7.69;100.00;101316.94;5051310;28;20266;-78
2022/10/19 07:56:56;;;;;;;11.27;5.07;;;;;;;7.83;100.00;101326.03;5033469;28;20044;-78
2022/10/19 07:59:22;;;;;;;12.93;5.05;;;;;;;8.01;100.00;101315.53;5051495;28;20319;-79
2022/10/19 08:01:47;;;;;;;12.07;5.33;;;;;;;8.00;100.00;101320.16;5051732;28;20032;-78
2022/10/19 08:04:13;;;;;;;13.95;5.15;;;;;;;7.85;100.00;101317.59;5051394;28;20259;-79
2022/10/19 08:06:38;;;;;;;18.33;5.68;;;;;;;7.90;100.00;101320.28;5033168;28;20245;-79
2022/10/19 08:09:04;;;;;;;15.17;5.97;;;;;;;7.89;100.00;101312.41;5051780;28;20036;-78
2022/10/19 08:11:32;;;;;;;11.60;4.93;;;;;;;8.07;100.00;101320.63;5051754;28;20413;-78
2022/10/19 08:13:58;;;;;;;12.02;5.10;;;;;;;8.28;100.00;101317.69;5033514;28;20503;-77
2022/10/19 08:16:32;;;;;;;14.88;5.25;;;;;;;8.47;100.00;101321.28;5033387;28;20061;-78
2022/10/19 08:19:00;;;;;;;15.30;5.18;;;;;;;8.65;100.00;101308.81;5051476;28;20123;-78
2022/10/19 08:21:27;;;;;;;13.13;5.07;;;;;;;8.82;100.00;101311.03;5051125;28;20033;-78
2022/10/19 08:23:55;;;;;;;11.32;5.28;;;;;;;8.97;100.00;101311.59;5051505;28;20025;-78
2022/10/19 08:26:20;;;;;;;9.75;4.90;;;;;;;8.96;99.82;101304.56;5017331;28;20082;-79
2022/10/19 08:28:46;;;;;;;13.65;4.93;;;;;;;9.12;100.00;101316.00;5051251;28;20029;-79
2022/10/19 08:31:21;;;;;;;12.52;5.53;;;;;;;9.20;99.08;101319.94;5051452;28;20037;-79
2022/10/19 08:33:50;;;;;;;11.27;5.15;;;;;;;9.29;98.87;101313.56;5033520;28;20025;-79
2022/10/19 08:36:16;;;;;;;12.57;4.70;;;;;;;9.27;99.15;101310.34;5055163;28;20051;-78
2022/10/19 08:38:43;;;;;;;12.25;5.75;;;;;;;9.29;98.73;101310.84;5054593;28;20486;-78
2022/10/19 08:41:35;;;;;;;12.35;4.90;;;;;;;9.33;98.16;101319.19;5054922;28;20482;-79
2022/10/19 08:44:19;;;;;;;11.32;5.03;;;;;;;9.37;98.44;101309.34;5054886;28;20028;-79
2022/10/19 08:47:32;;;;;;;14.52;5.15;;;;;;;9.59;98.08;101311.44;5054735;28;20104;-79
2022/10/19 08:49:58;;;;;;;10.60;4.28;;;;;;;9.56;97.16;101312.81;4973929;28;20026;-78
2022/10/19 08:52:28;;;;;;;10.55;5.13;;;;;;;9.62;97.17;101316.28;5021359;28;20383;-79
2022/10/19 08:55:22;;;;;;;11.45;4.03;;;;;;;9.80;97.23;101309.94;5054925;28;20169;-79
2022/10/19 08:58:15;;;;;;;10.18;4.55;;;;;;;9.94;96.55;101299.09;5052587;28;20354;-79
2022/10/19 09:00:47;;;;;;;8.15;4.20;;;;;;;10.09;95.58;101292.53;5054478;28;20103;-79
2022/10/19 09:03:24;;;;;;;10.52;4.32;;;;;;;10.20;94.44;101294.75;5036572;28;20041;-79
2022/10/19 09:06:04;;;;;;;11.10;4.03;;;;;;;10.23;94.43;101288.72;5054558;28;20469;-79
2022/10/19 09:08:29;;;;;;;10.02;4.25;;;;;;;10.41;94.23;101287.00;5054535;28;20044;-78
2022/10/19 09:10:56;;;;;;;9.07;3.53;;;;;;;10.31;93.37;101279.03;5054626;28;20070;-79
2022/10/19 09:13:43;;;;;;;9.90;4.28;;;;;;;10.53;92.46;101287.28;5020525;28;20025;-79
2022/10/19 09:16:13;;;;;;;;;;;;;;;10.76;91.61;101285.41;5055158;28;20025;-79
2022/10/19 09:18:39;;;;;;;10.52;3.10;;;;;;;10.97;90.76;101279.47;5036617;28;19909;-79
2022/10/19 09:21:04;;;;;;;;;;;;;;;10.94;90.04;101270.00;5055068;28;20025;-79
2022/10/19 09:23:38;;;;;;;8.38;3.80;;;;;;;11.03;89.92;101270.88;5054275;28;19919;-79
2022/10/19 09:26:12;;;;;;;8.68;3.33;;;;;;;11.21;88.24;101262.81;5054158;28;20362;-79
2022/10/19 09:28:57;;;;;;;6.22;2.10;;;;;;;11.22;86.49;101253.50;5054016;28;20029;-79
2022/10/19 09:31:39;;;;;;;3.45;1.55;;;;;;;11.11;85.19;101248.34;5054158;28;20111;-80
2022/10/19 09:34:13;;;;;;;5.18;1.45;;;;;;;11.20;84.61;101251.09;5054333;28;20531;-80
2022/10/19 09:36:50;;;;;;;4.28;1.90;;;;;;;11.21;84.42;101246.44;5053846;28;20526;-80
2022/10/19 09:39:16;;;;;;;7.88;1.65;;;;;;;11.34;82.79;101245.56;5036092;28;20485;-80
2022/10/19 09:41:55;;;;;;;6.45;1.63;;;;;;;11.38;83.00;101246.56;5036135;28;20025;-80
2022/10/19 09:44:25;;;;;;;4.90;1.20;;;;;;;11.50;83.28;101245.97;5019752;28;20056;-79
2022/10/19 09:47:13;;;;;;;5.68;1.70;;;;;;;11.65;82.06;101245.56;5048461;28;20068;-80
2022/10/19 09:49:47;;;;;;;4.72;1.60;;;;;;;11.75;79.26;101246.09;5054134;28;20020;-81
2022/10/19 09:52:39;;;;;;;4.25;1.50;;;;;;;11.81;80.19;101232.34;5054050;28;20020;-80
2022/10/19 09:55:18;;;;;;;2.30;0.90;;;;;;;11.84;78.33;101234.44;5019230;28;20553;-79
2022/10/19 09:57:49;;;;;;;4.40;1.02;;;;;;;11.79;78.18;101231.88;5053821;28;20389;-80
2022/10/19 10:00:29;;;;;;;3.10;1.20;;;;;;;11.96;75.74;101229.19;5047228;28;20067;-80
2022/10/19 10:02:56;;;;;;;2.33;0.80;;;;;;;12.09;76.07;101228.25;5053851;28;20021;-81
2022/10/19 10:05:37;;;;;;;4.43;1.30;;;;;;;12.07;76.02;101227.75;5036199;28;20036;-79
2022/10/19 10:08:11;;;;;;;3.85;1.00;;;;;;;12.09;75.18;101233.69;5053644;28;20021;-79
2022/10/19 10:10:43;;;;;;;4.72;0.90;;;;;;;12.04;75.15;101225.66;5053385;28;20024;-80
2022/10/19 10:13:17;;;;;;;2.05;0.80;;;;;;;12.09;74.77;101222.78;5053610;28;20017;-79
2022/10/19 10:15:49;;;;;;;2.80;0.90;;;;;;;12.11;74.40;101217.84;5053273;28;20469;-80
2022/10/19 10:18:17;;;;;;;3.63;0.75;;;;;;;12.20;74.33;101212.38;5053183;28;20021;-80
2022/10/19 10:21:03;;;;;;;5.28;0.90;;;;;;;12.17;73.62;101207.56;5052037;28;20500;-80
2022/10/19 10:23:33;;;;;;;2.80;0.70;;;;;;;12.25;73.65;101210.28;5053398;28;20063;-78
2022/10/19 10:25:59;;;;;;;2.90;0.60;;;;;;;12.33;72.94;101209.50;5053122;28;20032;-80
2022/10/19 10:28:25;;;;;;;;;;;;;;;12.31;72.98;101213.69;5053621;28;20094;-79
2022/10/19 10:31:09;;;;;;;2.27;0.80;;;;;;;12.40;72.37;101211.75;5052024;28;19995;-79
2022/10/19 10:33:36;;;;;;;2.90;1.35;;;;;;;12.38;72.76;101210.47;5051842;28;20401;-80
2022/10/19 10:36:09;;;;;;;10.77;1.00;;;;;;;12.34;73.76;101215.78;5051505;28;20024;-80
2022/10/19 10:38:49;;;;;;;2.67;1.25;;;;;;;12.36;73.58;101216.25;5052573;28;20029;-80
2022/10/19 10:41:17;;;;;;;2.47;0.70;;;;;;;12.61;73.58;101211.94;5052102;28;20024;-79
2022/10/19 10:44:05;;;;;;;1.50;0.68;;;;;;;12.83;72.80;101206.28;5052414;28;20397;-80
2022/10/19 10:46:41;;;;;;;5.10;0.98;;;;;;;12.86;72.73;101200.19;5051539;28;20525;-79
2022/10/19 10:49:27;;;;;;;5.13;1.00;;;;;;;12.98;72.04;101204.19;5053074;28;20071;-79
2022/10/19 10:52:09;;;;;;;3.30;0.85;;;;;;;12.91;70.76;101196.47;5052570;28;20120;-80
2022/10/19 10:54:36;;;;;;;1.20;0.52;;;;;;;12.80;70.45;101201.47;5052513;28;20029;-80
2022/10/19 10:57:12;;;;;;;3.70;0.75;;;;;;;12.81;70.72;101196.81;5052378;28;20033;-79
2022/10/19 10:59:57;;;;;;;2.63;0.73;;;;;;;13.04;69.68;101197.41;5052423;28;20053;-79
2022/10/19 11:02:46;;;;;;;2.00;0.70;;;;;;;13.26;68.91;101189.00;5034558;28;20036;-79
2022/10/19 11:05:23;;;;;;;1.80;0.50;;;;;;;13.16;68.73;101201.09;5035210;28;20031;-80
2022/10/19 11:07:56;;;;;;;1.92;0.75;;;;;;;13.39;68.04;101190.75;5052836;28;20096;-80
2022/10/19 11:10:42;;;;;;;3.70;1.00;;;;;;;13.25;69.00;101182.75;5035389;28;20094;-80
2022/10/19 11:13:16;;;;;;;2.65;0.73;;;;;;;13.30;67.99;101183.72;5052627;28;20430;-79
2022/10/19 11:15:56;;;;;;;3.60;1.20;;;;;;;13.29;67.80;101168.44;5052135;28;20024;-79
2022/10/19 11:18:27;;;;;;;2.92;0.73;;;;;;;13.31;67.71;101164.25;5034959;28;20497;-79
2022/10/19 11:21:05;;;;;;;3.35;0.70;;;;;;;13.55;66.86;101166.38;5052756;28;20021;-79
2022/10/19 11:23:46;;;;;;;3.28;0.77;;;;;;;13.79;66.81;101163.06;5049204;28;20123;-80
2022/10/19 11:26:18;;;;;;;1.33;0.60;;;;;;;13.92;66.00;101164.72;5052562;28;20021;-79
2022/10/19 11:29:15;;;;;;;3.88;0.88;;;;;;;13.58;66.80;101159.44;5052278;28;20032;-79
2022/10/19 11:31:47;;;;;;;1.85;0.68;;;;;;;13.57;66.59;101152.38;5034771;28;20167;-79
2022/10/19 11:34:18;;;;;;;2.30;1.20;;;;;;;13.57;65.78;101147.69;5052888;28;20025;-79
2022/10/19 11:37:21;;;;;;;3.45;0.90;;;;;;;13.49;66.23;101130.19;5052367;28;20032;-80
2022/10/19 11:40:03;;;;;;;1.70;0.63;;;;;;;13.61;66.15;101128.72;5052635;28;20025;-80